Cambridge, MA

5:36 PM EDT on October 23, 2014 (GMT -0400)
Hanscom | Change Station
CLOSE
Current Station
Airport
Location: Bedford,
Elevation: 135 ft
Nearby Weather Stations
Active Advisory: Wind Advisory Active Notice: Public Information Statement

Elev 135 ft 42.47 °N, 71.29 °W | Updated 26 minutes ago

Rain
Rain
52 °F
Feels Like 52 °F
N
16
Wind Variable Wind from North
Gusts 23 mph

Today
High -- | Low -- °F
--% Chance of Precip.
Yesterday
High -- | Low -- °F
Precip. -- in
7:06 AM 5:50 PM
Waning Crescent, 0% visible
Pressure 29.63 in
Visibility 3.0 miles
Clouds Overcast 600 ft
Dew Point 51 °F
Humidity 97%
Rainfall 2.39 in
Snow Depth Not available.
UV 0 out of 12
Pollen .30 out of 12
PM2.5 Good
Flu Activity No Activity
SPECI KBED 232110Z 01014G20KT 3SM BR OVC006 11/11 A2963 RMK AO2 RAE04 P0001 T01110106

More Conditions Fewer Conditions

Pressure 29.63 in
Visibility 3.0 miles
Clouds Overcast 600 ft
Dew Point 51 °F
Humidity 97%
Rainfall 2.39 in
Snow Depth Not available.
UV 0 out of 12
Pollen .30 out of 12
PM2.5 Good
Flu Activity No Activity
SPECI KBED 232110Z 01014G20KT 3SM BR OVC006 11/11 A2963 RMK AO2 RAE04 P0001 T01110106

More Conditions Fewer Conditions

10-Day Weather Forecast

Almanac

Astronomy

Oct. 23, 2014 Rise Set
Actual Time 7:06 AM EDT 5:50 PM EDT
Civil Twilight 6:38 AM EDT 6:18 PM EDT
Nautical Twilight 6:05 AM EDT 6:51 PM EDT
Astronomical Twilight 5:32 AM EDT 7:24 PM EDT
Moon 6:43 AM EDT 5:50 PM EDT
Length of Visible Light 11h 40m
Length of Day
10h 43m
Tomorrow will be 2m 40s shorter.
Waning Crescent, 0% of the Moon is Illuminated
Today
Waning Crescent
Oct 23
New
Oct 30
First Quarter
Nov 6
Full
Nov 14
Last Quarter

Today's Extremes

State Highs State Lows

Community

WunderPhotos

Upload Photos

1,764,379 photos uploaded!

WunderBlogs® & News

Nearby

Air Quality

  Air Quality AQ Index Pollutant
Yesterday Good
PM2.5
Yesterday Good
OZONE
Current Good
PM2.5
Thursday Good
PM2.5
Friday Good
PM2.5
Friday Good
OZONE

Snow Depth

Station Depth Elevation
No new snow has been reported.

Earthquake Activity

City Distance Mag. Time & Date
No recent earthquake activity has been reported nearby.
Minimum magnitude displayed is 2.5.

Coastal Water Temperatures

Place Temperature
Boston, MA 55.9 °F
Providence, RI 61.0 °F
Fall River, MA 62.1 °F
Conimicut Light, RI 60.1 °F

Nearby Weather Stations